Time;durP1;ratioP1;P1;durP2;ratioP2;P2;SDS_P1;SDS_P2;PMS_P1;PMS_P2;Temp;Humidity;BMP_temperature;BMP_pressure;BME280_temperature;BME280_humidity;BME280_pressure;Samples;Min_cycle;Max_cycle;Signal;HPM_P1;HPM_P2
2023/01/06 00:01:04;;;;;;;4.70;4.30;;;;;;;;;;5031950;28;20241;-77
2023/01/06 00:03:30;;;;;;;5.73;4.60;;;;;;;;;;5029769;28;20655;-77
2023/01/06 00:05:58;;;;;;;5.33;4.80;;;;;;;;;;5027642;28;20202;-78
2023/01/06 00:08:24;;;;;;;4.80;4.30;;;;;;;;;;5022245;28;20670;-80
2023/01/06 00:10:50;;;;;;;5.43;4.77;;;;;;;;;;5030040;28;20202;-78
2023/01/06 00:13:16;;;;;;;5.00;4.53;;;;;;;;;;5032332;28;20175;-77
2023/01/06 00:15:42;;;;;;;5.20;4.77;;;;;;;;;;5030169;28;20650;-77
2023/01/06 00:33:38;;;;;;;6.10;5.50;;;;;;;;;;5066923;28;20233;-77
2023/01/06 00:36:05;;;;;;;6.03;5.43;;;;;;;;;;5071219;28;20204;-78
2023/01/06 00:38:31;;;;;;;5.97;5.30;;;;;;;;;;5086875;28;20185;-78
2023/01/06 00:40:57;;;;;;;6.07;5.47;;;;;;;;;;5054242;28;20185;-79
2023/01/06 00:46:28;;;;;;;5.43;4.80;;;;;;;;;;5067947;28;20235;-78
2023/01/06 00:48:55;;;;;;;5.80;5.00;;;;;;;;;;5091183;28;20177;-78
2023/01/06 00:51:21;;;;;;;5.07;4.50;;;;;;;;;;5056337;28;20204;-80
2023/01/06 00:53:47;;;;;;;5.50;5.00;;;;;;;;;;5069001;28;20177;-79
2023/01/06 00:56:13;;;;;;;7.67;5.43;;;;;;;;;;5068851;28;20708;-79
2023/01/06 00:58:39;;;;;;;5.23;4.70;;;;;;;;;;5085728;28;20290;-79
2023/01/06 01:01:05;;;;;;;5.47;4.97;;;;;;;;;;5069997;28;20259;-79
2023/01/06 01:03:32;;;;;;;5.00;4.60;;;;;;;;;;5052850;28;20602;-79
2023/01/06 01:06:02;;;;;;;5.93;5.33;;;;;;;;;;5085095;28;20181;-77
2023/01/06 01:08:28;;;;;;;5.43;4.93;;;;;;;;;;5076881;28;20255;-78
2023/01/06 01:10:54;;;;;;;5.40;4.90;;;;;;;;;;5084675;28;20189;-80
2023/01/06 01:13:20;;;;;;;6.80;5.30;;;;;;;;;;5072761;28;20174;-78
2023/01/06 01:15:48;;;;;;;6.80;5.90;;;;;;;;;;5036377;28;20260;-80
2023/01/06 01:18:14;;;;;;;8.77;5.33;;;;;;;;;;5065096;28;20231;-79
2023/01/06 01:20:40;;;;;;;5.90;5.33;;;;;;;;;;5052751;28;20192;-80
2023/01/06 01:23:06;;;;;;;6.17;5.57;;;;;;;;;;5052894;28;20630;-79
2023/01/06 01:25:32;;;;;;;8.23;6.23;;;;;;;;;;5086188;28;20184;-78
2023/01/06 01:27:58;;;;;;;7.73;6.67;;;;;;;;;;5068770;28;20184;-78
2023/01/06 01:30:24;;;;;;;8.63;7.13;;;;;;;;;;5082908;28;20657;-78
2023/01/06 01:32:50;;;;;;;7.93;6.63;;;;;;;;;;5067145;28;20244;-78
2023/01/06 01:35:16;;;;;;;8.10;7.27;;;;;;;;;;5052176;28;20664;-78
2023/01/06 01:37:42;;;;;;;7.50;6.70;;;;;;;;;;5069779;28;20236;-78
2023/01/06 01:40:09;;;;;;;7.60;6.90;;;;;;;;;;5053525;28;20177;-78
2023/01/06 01:42:35;;;;;;;7.23;6.53;;;;;;;;;;5049899;28;20182;-78
2023/01/06 01:45:03;;;;;;;7.80;6.43;;;;;;;;;;5053146;28;20196;-78
2023/01/06 01:47:38;;;;;;;6.23;5.63;;;;;;;;;;5067445;28;20250;-77
2023/01/06 01:53:28;;;;;;;6.07;5.53;;;;;;;;;;5061725;28;20331;-78
2023/01/06 01:55:56;;;;;;;5.83;5.23;;;;;;;;;;5053760;28;20181;-79
2023/01/06 01:58:27;;;;;;;8.97;5.93;;;;;;;;;;5072467;28;20181;-78
2023/01/06 02:00:53;;;;;;;6.43;5.73;;;;;;;;;;5075783;28;20185;-77
2023/01/06 02:03:20;;;;;;;6.77;5.20;;;;;;;;;;5058940;28;20216;-77
2023/01/06 02:05:49;;;;;;;8.07;5.60;;;;;;;;;;5065950;28;20197;-77
2023/01/06 02:08:27;;;;;;;5.63;5.03;;;;;;;;;;5071148;28;20193;-78
2023/01/06 02:10:53;;;;;;;6.83;5.73;;;;;;;;;;5071550;28;20177;-77
2023/01/06 02:13:20;;;;;;;6.27;5.20;;;;;;;;;;5073589;28;20175;-78
2023/01/06 02:15:46;;;;;;;5.30;4.80;;;;;;;;;;5086284;28;20184;-78
2023/01/06 02:18:25;;;;;;;6.20;4.60;;;;;;;;;;5055055;28;20319;-78
2023/01/06 02:20:58;;;;;;;5.40;4.60;;;;;;;;;;5055735;28;20177;-78
2023/01/06 02:23:30;;;;;;;5.20;4.60;;;;;;;;;;5072572;28;20181;-77
2023/01/06 02:26:11;;;;;;;5.63;4.67;;;;;;;;;;5055377;28;20181;-78
2023/01/06 02:28:49;;;;;;;6.77;5.57;;;;;;;;;;5087958;28;20195;-77
2023/01/06 02:31:28;;;;;;;6.90;4.93;;;;;;;;;;5072533;28;20199;-78
2023/01/06 02:37:22;;;;;;;5.27;4.70;;;;;;;;;;5050697;28;20200;-78
2023/01/06 02:39:57;;;;;;;5.20;4.70;;;;;;;;;;5053105;28;20667;-78
2023/01/06 02:43:00;;;;;;;5.57;5.00;;;;;;;;;;5054311;28;20184;-77
2023/01/06 02:45:41;;;;;;;4.50;4.10;;;;;;;;;;5054196;28;20192;-78
2023/01/06 02:48:10;;;;;;;5.17;4.63;;;;;;;;;;5070798;28;20187;-78
2023/01/06 02:50:38;;;;;;;4.93;4.43;;;;;;;;;;5054819;28;20181;-77
2023/01/06 02:53:11;;;;;;;5.13;4.20;;;;;;;;;;5054473;28;20189;-78
2023/01/06 02:55:44;;;;;;;5.10;4.60;;;;;;;;;;5072337;28;20177;-76
2023/01/06 02:58:10;;;;;;;6.03;5.27;;;;;;;;;;5087337;28;20255;-76
2023/01/06 03:00:42;;;;;;;4.83;3.90;;;;;;;;;;5070884;28;20185;-77
2023/01/06 03:03:13;;;;;;;4.43;4.03;;;;;;;;;;5085318;28;20219;-77
2023/01/06 03:05:41;;;;;;;5.97;4.90;;;;;;;;;;5069666;28;20193;-77
2023/01/06 03:08:17;;;;;;;4.93;4.43;;;;;;;;;;5086367;28;20193;-77
2023/01/06 03:10:43;;;;;;;5.17;4.67;;;;;;;;;;5071973;28;20169;-77
2023/01/06 03:13:16;;;;;;;5.30;4.80;;;;;;;;;;5070333;28;20192;-77
2023/01/06 03:15:42;;;;;;;6.70;5.17;;;;;;;;;;5070557;28;20276;-77
2023/01/06 03:24:16;;;;;;;5.37;4.67;;;;;;;;;;5052304;28;20153;-77
2023/01/06 03:26:43;;;;;;;5.33;4.67;;;;;;;;;;5078165;28;20195;-76
2023/01/06 03:29:11;;;;;;;6.00;5.20;;;;;;;;;;5050773;28;20681;-77
2023/01/06 03:31:43;;;;;;;4.03;3.60;;;;;;;;;;5071696;28;20715;-76
2023/01/06 03:34:35;;;;;;;4.67;4.13;;;;;;;;;;5070354;28;20590;-76
2023/01/06 03:37:08;;;;;;;6.50;4.70;;;;;;;;;;5056306;28;20209;-76
2023/01/06 03:39:34;;;;;;;4.27;3.50;;;;;;;;;;5086833;28;20657;-76
2023/01/06 03:44:56;;;;;;;6.20;5.17;;;;;;;;;;5059378;28;20359;-77
2023/01/06 03:47:41;;;;;;;3.47;3.17;;;;;;;;;;5054180;28;20595;-76
2023/01/06 03:50:19;;;;;;;4.40;3.50;;;;;;;;;;5078083;28;20188;-77
2023/01/06 03:52:49;;;;;;;4.43;3.73;;;;;;;;;;5071112;28;20548;-76
2023/01/06 03:55:17;;;;;;;6.67;5.10;;;;;;;;;;5072464;28;20531;-77
2023/01/06 03:57:45;;;;;;;8.50;5.70;;;;;;;;;;5053191;28;20215;-77
2023/01/06 04:00:14;;;;;;;7.20;5.80;;;;;;;;;;5053393;28;20641;-76
2023/01/06 04:02:40;;;;;;;5.53;4.37;;;;;;;;;;5069842;28;20185;-77
2023/01/06 04:08:29;;;;;;;5.00;4.07;;;;;;;;;;5067780;28;20225;-76
2023/01/06 04:10:55;;;;;;;6.37;5.40;;;;;;;;;;5053419;28;20188;-77
2023/01/06 04:13:21;;;;;;;6.67;5.50;;;;;;;;;;5054036;28;20541;-76
2023/01/06 04:15:47;;;;;;;4.50;4.10;;;;;;;;;;5053214;28;20250;-76
2023/01/06 04:18:13;;;;;;;5.33;4.83;;;;;;;;;;5052809;28;20219;-77
2023/01/06 04:20:38;;;;;;;9.47;6.83;;;;;;;;;;5053215;28;20189;-77
2023/01/06 04:23:04;;;;;;;7.17;5.60;;;;;;;;;;5044031;28;20188;-77
2023/01/06 04:25:30;;;;;;;5.90;5.27;;;;;;;;;;5053341;28;20180;-77
2023/01/06 04:27:57;;;;;;;6.27;4.97;;;;;;;;;;5052965;28;20596;-76
2023/01/06 04:30:23;;;;;;;7.57;5.63;;;;;;;;;;5064044;28;20185;-77
2023/01/06 04:32:48;;;;;;;6.47;5.87;;;;;;;;;;5086215;28;20220;-77
2023/01/06 04:35:15;;;;;;;6.23;5.30;;;;;;;;;;5068819;28;20177;-76
2023/01/06 04:37:41;;;;;;;5.73;5.23;;;;;;;;;;5086038;28;20208;-77
2023/01/06 04:40:07;;;;;;;6.90;5.83;;;;;;;;;;5054027;28;20264;-76
2023/01/06 04:43:03;;;;;;;7.43;6.03;;;;;;;;;;5052505;28;20188;-76
2023/01/06 04:45:19;;;;;;;6.40;5.40;;;;;;;;;;5063885;28;20181;-77
2023/01/06 04:47:45;;;;;;;6.03;5.50;;;;;;;;;;5072136;28;20280;-77
2023/01/06 04:56:21;;;;;;;5.00;4.53;;;;;;;;;;5070995;28;20591;-77
2023/01/06 04:58:47;;;;;;;5.73;5.13;;;;;;;;;;5051863;28;20327;-76
2023/01/06 05:01:13;;;;;;;5.30;4.80;;;;;;;;;;5071492;28;20177;-76
2023/01/06 05:03:40;;;;;;;5.87;5.27;;;;;;;;;;5048110;28;20251;-77
2023/01/06 05:06:09;;;;;;;5.50;5.00;;;;;;;;;;5063430;28;20231;-76
2023/01/06 05:08:36;;;;;;;5.57;4.90;;;;;;;;;;5067607;28;20192;-77
2023/01/06 05:11:06;;;;;;;5.40;4.90;;;;;;;;;;5068645;28;20185;-79
2023/01/06 05:13:33;;;;;;;6.00;5.40;;;;;;;;;;5071274;28;20543;-77
2023/01/06 05:15:59;;;;;;;6.43;5.83;;;;;;;;;;5069936;28;20189;-76
2023/01/06 05:18:25;;;;;;;6.13;5.53;;;;;;;;;;5052416;28;20185;-76
2023/01/06 05:20:51;;;;;;;7.00;5.67;;;;;;;;;;5051777;28;20296;-77
2023/01/06 05:23:17;;;;;;;6.57;5.93;;;;;;;;;;5052280;28;20186;-76
2023/01/06 05:25:44;;;;;;;8.33;5.97;;;;;;;;;;5069865;28;20661;-77
2023/01/06 05:28:10;;;;;;;7.33;5.97;;;;;;;;;;5086564;28;20181;-76
2023/01/06 05:30:36;;;;;;;7.30;5.90;;;;;;;;;;5067594;28;20177;-76
2023/01/06 05:33:02;;;;;;;7.40;5.73;;;;;;;;;;5068070;28;20243;-76
2023/01/06 05:41:36;;;;;;;5.83;5.30;;;;;;;;;;5070738;28;20184;-76
2023/01/06 05:44:02;;;;;;;6.23;5.33;;;;;;;;;;5054753;28;20246;-76
2023/01/06 05:46:28;;;;;;;6.60;5.87;;;;;;;;;;5056817;28;20630;-77
2023/01/06 05:48:54;;;;;;;6.53;5.63;;;;;;;;;;5074291;28;20193;-76
2023/01/06 05:51:20;;;;;;;7.17;6.07;;;;;;;;;;5061559;28;20242;-76
2023/01/06 05:53:47;;;;;;;6.73;5.57;;;;;;;;;;5072937;28;20255;-76
2023/01/06 05:56:14;;;;;;;7.00;5.67;;;;;;;;;;5053789;28;20192;-76
2023/01/06 05:58:40;;;;;;;6.83;5.77;;;;;;;;;;5074517;28;20270;-76
2023/01/06 06:04:11;;;;;;;8.40;6.77;;;;;;;;;;5070666;28;20305;-76
2023/01/06 06:06:37;;;;;;;9.87;8.50;;;;;;;;;;5085826;28;20189;-77
2023/01/06 06:09:04;;;;;;;11.57;8.33;;;;;;;;;;5073513;28;20185;-76
2023/01/06 06:11:30;;;;;;;12.80;9.67;;;;;;;;;;5088849;28;20203;-76
2023/01/06 06:13:56;;;;;;;7.47;6.50;;;;;;;;;;5072391;28;20723;-76
2023/01/06 06:16:26;;;;;;;8.43;6.93;;;;;;;;;;5073136;28;20200;-76
2023/01/06 06:18:57;;;;;;;8.27;7.10;;;;;;;;;;5050510;28;20178;-77
2023/01/06 06:24:27;;;;;;;7.53;6.73;;;;;;;;;;5065086;28;20671;-77
2023/01/06 06:27:18;;;;;;;7.23;6.13;;;;;;;;;;5054556;28;20522;-77
2023/01/06 06:29:44;;;;;;;7.33;6.40;;;;;;;;;;5070641;28;20260;-77
2023/01/06 06:32:10;;;;;;;6.30;5.70;;;;;;;;;;5086252;28;20317;-77
2023/01/06 06:34:36;;;;;;;6.60;5.90;;;;;;;;;;5056027;28;20214;-77
2023/01/06 06:37:02;;;;;;;10.13;5.70;;;;;;;;;;5069926;28;20729;-77
2023/01/06 06:39:34;;;;;;;6.77;6.07;;;;;;;;;;5070109;28;20196;-77
2023/01/06 06:42:00;;;;;;;6.83;5.90;;;;;;;;;;5054222;28;20299;-77
2023/01/06 06:44:26;;;;;;;10.80;8.03;;;;;;;;;;5054639;28;20639;-77
2023/01/06 06:46:52;;;;;;;9.67;7.50;;;;;;;;;;5053987;28;20177;-77
2023/01/06 06:49:18;;;;;;;7.00;6.30;;;;;;;;;;5078615;28;20164;-77
2023/01/06 06:51:46;;;;;;;6.70;6.00;;;;;;;;;;5075837;28;20192;-77
2023/01/06 06:54:12;;;;;;;9.03;7.30;;;;;;;;;;5054261;28;20239;-76
2023/01/06 06:56:38;;;;;;;6.83;6.13;;;;;;;;;;5084980;28;20216;-77
2023/01/06 06:59:04;;;;;;;6.50;5.90;;;;;;;;;;5087238;28;20189;-77
2023/01/06 07:01:31;;;;;;;6.87;5.87;;;;;;;;;;5051242;28;20170;-77
2023/01/06 07:03:57;;;;;;;6.67;6.07;;;;;;;;;;5051592;28;20272;-77
2023/01/06 07:06:24;;;;;;;7.00;5.70;;;;;;;;;;5071637;28;20211;-77
2023/01/06 07:08:50;;;;;;;6.40;5.80;;;;;;;;;;5054164;28;20239;-77
2023/01/06 07:11:16;;;;;;;6.93;6.10;;;;;;;;;;5055429;28;20217;-77
2023/01/06 07:13:42;;;;;;;6.73;6.03;;;;;;;;;;5055859;28;20515;-77
2023/01/06 07:16:08;;;;;;;7.13;6.43;;;;;;;;;;5070649;28;20195;-77
2023/01/06 07:18:34;;;;;;;8.03;6.50;;;;;;;;;;5071824;28;20181;-77
2023/01/06 07:21:00;;;;;;;7.13;6.30;;;;;;;;;;5072979;28;20205;-77
2023/01/06 07:23:27;;;;;;;7.40;6.40;;;;;;;;;;5076383;28;20249;-77
2023/01/06 07:25:54;;;;;;;7.27;5.87;;;;;;;;;;5095506;28;20173;-77
2023/01/06 07:28:20;;;;;;;7.13;6.40;;;;;;;;;;5053586;28;20188;-77
2023/01/06 07:30:46;;;;;;;7.00;6.20;;;;;;;;;;5076853;28;20197;-76
2023/01/06 07:33:12;;;;;;;10.37;8.10;;;;;;;;;;5059430;28;20251;-77
2023/01/06 07:35:38;;;;;;;10.30;8.20;;;;;;;;;;5077207;28;20305;-77
2023/01/06 07:38:05;;;;;;;7.67;6.87;;;;;;;;;;5077447;28;20280;-76
2023/01/06 07:40:31;;;;;;;7.97;7.17;;;;;;;;;;5051292;28;20169;-77
2023/01/06 07:42:57;;;;;;;8.20;7.40;;;;;;;;;;5050347;28;20189;-77
2023/01/06 07:45:23;;;;;;;7.63;6.87;;;;;;;;;;5054620;28;20177;-77
2023/01/06 07:47:49;;;;;;;6.93;6.23;;;;;;;;;;5075279;28;20230;-77
2023/01/06 07:50:18;;;;;;;6.83;6.00;;;;;;;;;;5082335;28;20666;-77
2023/01/06 07:52:44;;;;;;;7.33;6.27;;;;;;;;;;5087705;28;20181;-77
2023/01/06 07:55:10;;;;;;;7.77;6.47;;;;;;;;;;5085790;28;20708;-77
2023/01/06 07:57:36;;;;;;;7.03;6.03;;;;;;;;;;5083960;28;20296;-77
2023/01/06 08:00:02;;;;;;;7.80;6.37;;;;;;;;;;5082935;28;20200;-77
2023/01/06 08:02:28;;;;;;;6.90;6.20;;;;;;;;;;5051510;28;20181;-77
2023/01/06 08:04:54;;;;;;;6.77;6.10;;;;;;;;;;5054203;28;20198;-76
2023/01/06 08:07:39;;;;;;;6.73;6.03;;;;;;;;;;5085114;28;20185;-78
2023/01/06 08:10:06;;;;;;;6.73;6.10;;;;;;;;;;5049386;28;20616;-78
2023/01/06 08:12:32;;;;;;;8.40;6.47;;;;;;;;;;5049366;28;20182;-76
2023/01/06 08:14:59;;;;;;;5.93;5.33;;;;;;;;;;5053172;28;20231;-78
2023/01/06 08:17:25;;;;;;;7.50;5.97;;;;;;;;;;5049051;28;20219;-76
2023/01/06 08:19:55;;;;;;;7.03;6.33;;;;;;;;;;5071543;28;20197;-77
2023/01/06 08:22:24;;;;;;;10.37;8.20;;;;;;;;;;5052489;28;20200;-80
2023/01/06 08:24:51;;;;;;;9.30;7.83;;;;;;;;;;5068941;28;20705;-78
2023/01/06 08:27:49;;;;;;;10.57;7.40;;;;;;;;;;5051343;28;20177;-78
2023/01/06 08:30:20;;;;;;;8.50;7.60;;;;;;;;;;5069168;28;20173;-79
2023/01/06 08:32:48;;;;;;;9.07;8.17;;;;;;;;;;5050834;28;20240;-79
2023/01/06 08:35:15;;;;;;;7.73;6.93;;;;;;;;;;5051268;28;20181;-76
2023/01/06 08:37:42;;;;;;;6.80;6.07;;;;;;;;;;5071386;28;20207;-79
2023/01/06 08:40:10;;;;;;;12.90;9.20;;;;;;;;;;5050597;28;20189;-79
2023/01/06 08:42:37;;;;;;;8.83;7.07;;;;;;;;;;5052753;28;20229;-77
2023/01/06 08:45:04;;;;;;;6.30;5.70;;;;;;;;;;5049583;28;20188;-76
2023/01/06 08:47:31;;;;;;;10.80;8.37;;;;;;;;;;5069996;28;20268;-78
2023/01/06 08:49:59;;;;;;;12.13;9.57;;;;;;;;;;5054197;28;20188;-79
2023/01/06 08:52:26;;;;;;;11.67;9.53;;;;;;;;;;5051537;28;20676;-77
2023/01/06 08:54:53;;;;;;;7.73;6.60;;;;;;;;;;5050963;28;20547;-76
2023/01/06 08:57:20;;;;;;;9.60;7.33;;;;;;;;;;5068566;28;20201;-77
2023/01/06 08:59:47;;;;;;;9.60;7.63;;;;;;;;;;5051396;28;20197;-78
2023/01/06 09:02:14;;;;;;;10.43;8.83;;;;;;;;;;5050219;28;20268;-77
2023/01/06 09:04:41;;;;;;;11.00;7.97;;;;;;;;;;5051492;28;20180;-77
2023/01/06 09:07:08;;;;;;;9.57;8.20;;;;;;;;;;5069201;28;20181;-77
2023/01/06 09:09:35;;;;;;;9.47;7.73;;;;;;;;;;5050198;28;20184;-77
2023/01/06 09:12:02;;;;;;;12.03;10.23;;;;;;;;;;5070914;28;20239;-78
2023/01/06 09:14:30;;;;;;;14.17;11.40;;;;;;;;;;5054407;28;20192;-78
2023/01/06 09:16:57;;;;;;;11.80;9.73;;;;;;;;;;5074276;28;20736;-77
2023/01/06 09:19:23;;;;;;;7.80;6.67;;;;;;;;;;5072445;28;20186;-77
2023/01/06 09:21:51;;;;;;;6.27;5.53;;;;;;;;;;5053606;28;20181;-78
2023/01/06 09:24:20;;;;;;;8.43;7.03;;;;;;;;;;5072239;28;20189;-78
2023/01/06 09:26:47;;;;;;;7.67;6.90;;;;;;;;;;5070827;28;20189;-77
2023/01/06 09:29:13;;;;;;;8.30;7.37;;;;;;;;;;5053901;28;20204;-77
2023/01/06 09:31:39;;;;;;;7.47;6.77;;;;;;;;;;5054401;28;20175;-77
2023/01/06 09:34:05;;;;;;;9.77;7.87;;;;;;;;;;5065366;28;20228;-76
2023/01/06 09:36:33;;;;;;;8.03;7.23;;;;;;;;;;5072039;28;20243;-77
2023/01/06 09:38:59;;;;;;;8.30;6.47;;;;;;;;;;5052134;28;20185;-77
2023/01/06 09:41:25;;;;;;;7.50;6.70;;;;;;;;;;5053979;28;20584;-77
2023/01/06 09:44:14;;;;;;;6.60;6.00;;;;;;;;;;5073886;28;20214;-76
2023/01/06 09:46:42;;;;;;;6.43;5.63;;;;;;;;;;5066804;28;20588;-77
2023/01/06 09:52:31;;;;;;;7.43;6.00;;;;;;;;;;5069300;28;20148;-78
2023/01/06 09:55:00;;;;;;;7.27;6.10;;;;;;;;;;5069918;28;20181;-77
2023/01/06 09:57:35;;;;;;;8.63;7.40;;;;;;;;;;5069993;28;20204;-77
2023/01/06 10:00:04;;;;;;;7.23;6.53;;;;;;;;;;5054564;28;20220;-77
2023/01/06 10:02:38;;;;;;;9.30;8.27;;;;;;;;;;5073013;28;20534;-77
2023/01/06 10:05:18;;;;;;;8.47;7.67;;;;;;;;;;5054508;28;20170;-77
2023/01/06 10:08:01;;;;;;;8.93;7.40;;;;;;;;;;5074493;28;20181;-78
2023/01/06 10:10:46;;;;;;;7.57;6.80;;;;;;;;;;5039791;28;20191;-78
2023/01/06 10:13:21;;;;;;;7.57;6.60;;;;;;;;;;5069928;28;20208;-76
2023/01/06 10:15:56;;;;;;;10.23;7.10;;;;;;;;;;5070057;28;20181;-76
2023/01/06 10:18:51;;;;;;;8.53;7.67;;;;;;;;;;5067839;28;20207;-75
2023/01/06 10:21:30;;;;;;;8.43;7.07;;;;;;;;;;5062178;28;20193;-75
2023/01/06 10:24:07;;;;;;;7.47;6.77;;;;;;;;;;5083249;28;20204;-80
2023/01/06 10:26:57;;;;;;;7.63;6.73;;;;;;;;;;5058439;28;20185;-75
2023/01/06 10:29:25;;;;;;;7.47;6.70;;;;;;;;;;5037807;28;20189;-78
2023/01/06 10:31:53;;;;;;;8.37;6.77;;;;;;;;;;5052261;28;20218;-77
2023/01/06 10:34:23;;;;;;;12.23;10.40;;;;;;;;;;5051950;28;20186;-79
2023/01/06 10:36:56;;;;;;;8.10;7.20;;;;;;;;;;5051202;28;20220;-78
2023/01/06 10:39:24;;;;;;;7.43;6.53;;;;;;;;;;5052586;28;20625;-78
2023/01/06 10:41:55;;;;;;;7.53;6.73;;;;;;;;;;5051142;28;20184;-77
2023/01/06 10:44:21;;;;;;;7.73;6.93;;;;;;;;;;5051777;28;20526;-78
2023/01/06 10:46:48;;;;;;;7.80;6.90;;;;;;;;;;5067916;28;20610;-77
2023/01/06 10:49:16;;;;;;;8.17;6.93;;;;;;;;;;5068362;28;20189;-78
2023/01/06 10:51:47;;;;;;;8.97;7.33;;;;;;;;;;5070173;28;20195;-78
2023/01/06 10:54:17;;;;;;;8.77;7.47;;;;;;;;;;5051421;28;20180;-77
2023/01/06 10:56:45;;;;;;;8.53;7.40;;;;;;;;;;5051095;28;20247;-78
2023/01/06 10:59:12;;;;;;;8.13;6.83;;;;;;;;;;5069349;28;20189;-77
2023/01/06 11:01:51;;;;;;;9.37;7.50;;;;;;;;;;5053235;28;20181;-78
2023/01/06 11:04:18;;;;;;;8.07;7.27;;;;;;;;;;5048196;28;20649;-79
2023/01/06 11:06:44;;;;;;;10.70;7.93;;;;;;;;;;5063132;28;20226;-78
2023/01/06 11:09:31;;;;;;;9.40;7.23;;;;;;;;;;5051975;28;20284;-79
2023/01/06 11:11:59;;;;;;;11.30;7.77;;;;;;;;;;5046894;28;20177;-76
2023/01/06 11:14:38;;;;;;;8.07;7.23;;;;;;;;;;5070473;28;20197;-78
2023/01/06 11:17:08;;;;;;;7.80;7.00;;;;;;;;;;5044686;28;20205;-77
2023/01/06 11:19:39;;;;;;;8.20;7.40;;;;;;;;;;5051291;28;20188;-76
2023/01/06 11:22:05;;;;;;;9.37;7.60;;;;;;;;;;5051103;28;20185;-77
2023/01/06 11:24:31;;;;;;;8.87;7.83;;;;;;;;;;5066247;28;20520;-76
2023/01/06 11:27:01;;;;;;;8.20;7.40;;;;;;;;;;5068627;28;20297;-77
2023/01/06 11:29:29;;;;;;;8.60;7.70;;;;;;;;;;5050778;28;20541;-77
2023/01/06 11:31:56;;;;;;;8.10;7.30;;;;;;;;;;5068183;28;20177;-77
2023/01/06 11:34:24;;;;;;;8.03;7.23;;;;;;;;;;5051851;28;20189;-77
2023/01/06 11:36:51;;;;;;;7.77;6.97;;;;;;;;;;5051628;28;20547;-78
2023/01/06 11:39:22;;;;;;;8.13;7.23;;;;;;;;;;5051745;28;20201;-76
2023/01/06 11:41:50;;;;;;;9.67;8.07;;;;;;;;;;5049108;28;20189;-76
2023/01/06 11:44:18;;;;;;;8.97;8.03;;;;;;;;;;5066635;28;20173;-78
2023/01/06 11:46:48;;;;;;;23.40;17.53;;;;;;;;;;5051582;28;20188;-77
2023/01/06 11:49:19;;;;;;;15.20;12.13;;;;;;;;;;5071093;28;20196;-80
2023/01/06 11:51:47;;;;;;;8.97;7.80;;;;;;;;;;5070887;28;20678;-76
2023/01/06 11:54:36;;;;;;;9.00;8.10;;;;;;;;;;5069890;28;20181;-78
2023/01/06 11:57:12;;;;;;;9.13;8.23;;;;;;;;;;5061641;28;20209;-78
2023/01/06 11:59:58;;;;;;;9.73;8.73;;;;;;;;;;5052522;28;20242;-77
2023/01/06 12:02:30;;;;;;;9.03;8.10;;;;;;;;;;5057893;28;20182;-78
2023/01/06 12:04:56;;;;;;;8.83;7.90;;;;;;;;;;5069152;28;20576;-77
2023/01/06 12:07:33;;;;;;;9.50;8.33;;;;;;;;;;5052577;28;20649;-76
2023/01/06 12:10:04;;;;;;;19.10;12.80;;;;;;;;;;5050145;28;20184;-77
2023/01/06 12:12:30;;;;;;;24.63;18.13;;;;;;;;;;5051885;28;20192;-77
2023/01/06 12:14:56;;;;;;;11.50;9.33;;;;;;;;;;5052435;28;20231;-76
2023/01/06 12:17:36;;;;;;;13.37;10.57;;;;;;;;;;5071514;28;20197;-77
2023/01/06 12:20:15;;;;;;;12.17;10.07;;;;;;;;;;5070484;28;20196;-77
2023/01/06 12:22:54;;;;;;;11.57;8.97;;;;;;;;;;5050859;28;20185;-76
2023/01/06 12:25:32;;;;;;;9.67;8.03;;;;;;;;;;5068000;28;20181;-77
2023/01/06 12:27:57;;;;;;;8.87;7.80;;;;;;;;;;5051956;28;20181;-77
2023/01/06 12:30:33;;;;;;;9.17;8.07;;;;;;;;;;5068981;28;20505;-77
2023/01/06 12:33:05;;;;;;;10.90;8.00;;;;;;;;;;5046325;28;20229;-77
2023/01/06 12:35:32;;;;;;;13.47;8.20;;;;;;;;;;5046175;28;20567;-76
2023/01/06 12:38:01;;;;;;;9.67;7.93;;;;;;;;;;5047679;28;20202;-77
2023/01/06 12:40:31;;;;;;;9.57;8.03;;;;;;;;;;5046303;28;20209;-77
2023/01/06 12:43:16;;;;;;;9.33;8.03;;;;;;;;;;5033210;28;20188;-77
2023/01/06 12:45:58;;;;;;;10.93;8.63;;;;;;;;;;5029242;28;20272;-78
2023/01/06 12:48:36;;;;;;;29.67;16.67;;;;;;;;;;5041846;28;20552;-76
2023/01/06 12:51:10;;;;;;;20.70;13.40;;;;;;;;;;5036922;28;20666;-77
2023/01/06 12:53:38;;;;;;;13.13;10.97;;;;;;;;;;5016810;28;20810;-76
2023/01/06 12:56:11;;;;;;;11.57;8.63;;;;;;;;;;5033566;28;20170;-77
2023/01/06 12:58:40;;;;;;;10.17;9.07;;;;;;;;;;5029242;28;20241;-78
2023/01/06 13:01:06;;;;;;;10.33;8.40;;;;;;;;;;5038165;28;20178;-78
2023/01/06 13:03:35;;;;;;;12.70;8.90;;;;;;;;;;5047851;28;20703;-76
2023/01/06 13:06:07;;;;;;;9.93;8.93;;;;;;;;;;5035685;28;20186;-75
2023/01/06 13:08:55;;;;;;;11.23;9.53;;;;;;;;;;5065939;28;20181;-76
2023/01/06 13:11:21;;;;;;;12.23;10.33;;;;;;;;;;5054966;28;20183;-76
2023/01/06 13:13:47;;;;;;;15.50;11.90;;;;;;;;;;5051393;28;20192;-77
2023/01/06 13:16:21;;;;;;;11.60;9.87;;;;;;;;;;5039470;28;20189;-75
2023/01/06 13:18:53;;;;;;;12.70;10.53;;;;;;;;;;5033161;28;20185;-77
2023/01/06 13:21:22;;;;;;;14.00;10.90;;;;;;;;;;5032113;28;20190;-76
2023/01/06 13:23:54;;;;;;;15.67;11.63;;;;;;;;;;5031518;28;20771;-78
2023/01/06 13:26:38;;;;;;;14.80;10.77;;;;;;;;;;5032535;28;20170;-76
2023/01/06 13:29:13;;;;;;;33.10;20.13;;;;;;;;;;5045492;28;20229;-77
2023/01/06 13:32:00;;;;;;;36.53;21.60;;;;;;;;;;5062026;28;20189;-77
2023/01/06 13:34:41;;;;;;;102.70;43.40;;;;;;;;;;5035025;28;20280;-78
2023/01/06 13:37:17;;;;;;;71.97;32.87;;;;;;;;;;5045128;28;20293;-77
2023/01/06 13:40:09;;;;;;;66.87;35.83;;;;;;;;;;5033659;28;20181;-78
2023/01/06 13:42:55;;;;;;;61.17;32.57;;;;;;;;;;5048426;28;20217;-77
2023/01/06 13:45:25;;;;;;;43.17;26.80;;;;;;;;;;5032946;28;20204;-76
2023/01/06 13:47:52;;;;;;;44.93;28.03;;;;;;;;;;5032932;28;20190;-77
2023/01/06 13:50:19;;;;;;;29.83;19.60;;;;;;;;;;5066982;28;20241;-77
2023/01/06 13:52:46;;;;;;;48.43;25.43;;;;;;;;;;5050721;28;20197;-77
2023/01/06 13:55:18;;;;;;;40.90;22.87;;;;;;;;;;5050302;28;20182;-76
2023/01/06 13:57:45;;;;;;;42.30;23.27;;;;;;;;;;5034609;28;20216;-76
2023/01/06 14:00:11;;;;;;;20.63;13.37;;;;;;;;;;5052795;28;20293;-78
2023/01/06 14:02:37;;;;;;;20.97;13.67;;;;;;;;;;5073496;28;20188;-78
2023/01/06 14:05:03;;;;;;;14.67;11.47;;;;;;;;;;5051797;28;20166;-77
2023/01/06 14:07:41;;;;;;;18.13;12.33;;;;;;;;;;5052259;28;20280;-76
2023/01/06 14:10:27;;;;;;;12.13;10.60;;;;;;;;;;5067136;28;20178;-78
2023/01/06 14:12:53;;;;;;;14.97;11.77;;;;;;;;;;5035384;28;20182;-77
2023/01/06 14:15:26;;;;;;;16.10;11.57;;;;;;;;;;5048204;28;20194;-79
2023/01/06 14:17:52;;;;;;;13.47;10.97;;;;;;;;;;5066149;28;20233;-77
2023/01/06 14:20:26;;;;;;;14.47;10.90;;;;;;;;;;5054228;28;20214;-77
2023/01/06 14:23:03;;;;;;;14.07;11.80;;;;;;;;;;5050612;28;20181;-77
2023/01/06 14:25:31;;;;;;;16.20;13.23;;;;;;;;;;5067952;28;20638;-77
2023/01/06 14:28:00;;;;;;;22.10;15.10;;;;;;;;;;5051143;28;20181;-77
2023/01/06 14:30:27;;;;;;;31.50;20.53;;;;;;;;;;5035053;28;20272;-77
2023/01/06 14:32:58;;;;;;;28.93;19.10;;;;;;;;;;5053601;28;20254;-77
2023/01/06 14:35:34;;;;;;;19.40;14.70;;;;;;;;;;5056399;28;20189;-77
2023/01/06 14:38:02;;;;;;;23.40;17.17;;;;;;;;;;5040481;28;20670;-76
2023/01/06 14:46:39;;;;;;;36.20;24.50;;;;;;;;;;5064387;28;20187;-77
2023/01/06 14:49:06;;;;;;;87.90;40.17;;;;;;;;;;5055640;28;20200;-78
2023/01/06 14:51:33;;;;;;;90.20;40.50;;;;;;;;;;5057842;28;20192;-77
2023/01/06 14:53:59;;;;;;;112.83;51.77;;;;;;;;;;5070387;28;20268;-78
2023/01/06 14:56:28;;;;;;;94.57;50.00;;;;;;;;;;5055104;28;20185;-78
2023/01/06 14:59:04;;;;;;;67.77;41.10;;;;;;;;;;5070492;28;20216;-78
2023/01/06 15:01:32;;;;;;;43.47;32.03;;;;;;;;;;5054783;28;20184;-77
2023/01/06 15:03:59;;;;;;;27.63;21.90;;;;;;;;;;5059208;28;20193;-78
2023/01/06 15:06:26;;;;;;;23.40;18.07;;;;;;;;;;5053817;28;20184;-77
2023/01/06 15:08:54;;;;;;;22.23;18.17;;;;;;;;;;5053116;28;20664;-78
2023/01/06 15:11:25;;;;;;;25.17;17.73;;;;;;;;;;5055452;28;20207;-78
2023/01/06 15:13:51;;;;;;;21.40;16.57;;;;;;;;;;5053475;28;20221;-77
2023/01/06 15:16:23;;;;;;;20.07;15.90;;;;;;;;;;5070287;28;20264;-78
2023/01/06 15:18:52;;;;;;;17.93;14.80;;;;;;;;;;5053855;28;20250;-78
2023/01/06 15:21:18;;;;;;;20.93;16.93;;;;;;;;;;5070727;28;20227;-77
2023/01/06 15:23:47;;;;;;;18.47;15.60;;;;;;;;;;5052117;28;20170;-77
2023/01/06 15:26:17;;;;;;;20.23;16.60;;;;;;;;;;5051482;28;20697;-77
2023/01/06 15:28:55;;;;;;;23.43;18.07;;;;;;;;;;5051678;28;20243;-77
2023/01/06 15:31:21;;;;;;;22.50;18.00;;;;;;;;;;5053735;28;20272;-77
2023/01/06 15:33:47;;;;;;;22.63;16.73;;;;;;;;;;5054287;28;20316;-77
2023/01/06 15:36:18;;;;;;;29.63;21.53;;;;;;;;;;5071392;28;20212;-78
2023/01/06 15:38:46;;;;;;;25.93;19.57;;;;;;;;;;5070764;28;20211;-78
2023/01/06 15:41:31;;;;;;;26.43;20.13;;;;;;;;;;5051476;28;20549;-78
2023/01/06 15:43:58;;;;;;;32.73;24.50;;;;;;;;;;5067902;28;20181;-78
2023/01/06 15:46:24;;;;;;;30.40;21.07;;;;;;;;;;5055670;28;20207;-77
2023/01/06 15:48:51;;;;;;;28.33;20.77;;;;;;;;;;5069601;28;20196;-78
2023/01/06 15:51:18;;;;;;;25.67;18.27;;;;;;;;;;5054714;28;20565;-78
2023/01/06 15:53:46;;;;;;;29.33;21.93;;;;;;;;;;5053004;28;20688;-78
2023/01/06 15:56:18;;;;;;;24.00;18.93;;;;;;;;;;5071894;28;20169;-77